Time;durP1;ratioP1;P1;durP2;ratioP2;P2;SDS_P1;SDS_P2;PMS_P1;PMS_P2;Temp;Humidity;BMP_temperature;BMP_pressure;BME280_temperature;BME280_humidity;BME280_pressure;Samples;Min_cycle;Max_cycle;Signal;HPM_P1;HPM_P2
2021/10/12 00:03:20;;;;;;;18.70;14.80;;;;;;;11.90;76.59;100908.81;10298493;28;20046;-58
2021/10/12 00:08:22;;;;;;;17.88;14.40;;;;;;;11.92;76.16;100910.41;10309995;28;20142;-58
2021/10/12 00:13:23;;;;;;;21.48;14.85;;;;;;;11.86;76.39;100908.19;10302497;28;20085;-58
2021/10/12 00:18:25;;;;;;;17.75;13.25;;;;;;;11.83;76.79;100903.09;10298759;28;20106;-58
2021/10/12 00:23:26;;;;;;;16.38;14.23;;;;;;;11.85;76.90;100898.50;10312280;28;20680;-59
2021/10/12 00:28:28;;;;;;;16.15;13.00;;;;;;;11.81;76.30;100889.88;10311601;28;20097;-58
2021/10/12 00:33:31;;;;;;;18.92;13.88;;;;;;;11.77;76.39;100876.88;10307754;28;20046;-58
2021/10/12 00:38:32;;;;;;;15.02;13.07;;;;;;;11.81;75.99;100879.22;10303522;28;20043;-58
2021/10/12 00:43:35;;;;;;;15.57;12.57;;;;;;;11.89;76.42;100886.63;10295838;28;20129;-59
2021/10/12 00:48:36;;;;;;;14.45;12.73;;;;;;;11.91;76.27;100890.03;10301531;28;20104;-58
2021/10/12 00:53:38;;;;;;;16.10;12.98;;;;;;;11.94;76.28;100873.81;10300786;28;20111;-58
2021/10/12 00:58:40;;;;;;;13.00;11.60;;;;;;;11.86;76.09;100854.84;10299811;28;20520;-58
2021/10/12 01:03:41;;;;;;;15.73;13.55;;;;;;;11.88;76.08;100855.56;10306036;28;20053;-57
2021/10/12 01:08:43;;;;;;;16.90;12.80;;;;;;;11.90;76.07;100853.63;10303751;28;20082;-58
2021/10/12 01:13:44;;;;;;;14.15;12.63;;;;;;;11.92;75.84;100846.38;10304073;28;20050;-58
2021/10/12 01:19:00;;;;;;;16.27;12.40;;;;;;;11.87;76.01;100835.19;10302200;28;20070;-59
2021/10/12 01:24:02;;;;;;;16.55;13.85;;;;;;;11.94;76.07;100843.63;10298454;28;20096;-58
2021/10/12 01:29:05;;;;;;;16.80;12.27;;;;;;;11.96;76.12;100839.00;10305228;28;20450;-57
2021/10/12 01:34:12;;;;;;;16.92;12.32;;;;;;;11.91;76.29;100836.66;10298984;28;20073;-57
2021/10/12 01:39:15;;;;;;;15.35;12.45;;;;;;;11.77;75.62;100815.53;10302912;28;20107;-58
2021/10/12 01:44:18;;;;;;;12.90;11.52;;;;;;;11.81;76.26;100814.31;10295745;28;20137;-57
2021/10/12 01:49:20;;;;;;;15.85;10.82;;;;;;;11.80;75.70;100793.94;10291921;28;20482;-58
2021/10/12 01:54:23;;;;;;;14.20;10.90;;;;;;;11.88;75.97;100799.56;10299491;28;20141;-57
2021/10/12 01:59:24;;;;;;;13.52;11.23;;;;;;;11.82;75.75;100778.69;10302675;28;20186;-58
2021/10/12 02:04:26;;;;;;;15.15;11.10;;;;;;;11.89;75.45;100806.59;10307683;28;20126;-57
2021/10/12 02:09:27;;;;;;;13.60;10.75;;;;;;;11.80;75.56;100785.94;10303767;28;20152;-57
2021/10/12 02:14:29;;;;;;;13.20;9.68;;;;;;;11.84;75.84;100785.63;10299029;28;20054;-58
2021/10/12 02:19:30;;;;;;;13.05;10.02;;;;;;;11.87;75.72;100776.50;10301165;28;20574;-58
2021/10/12 02:24:32;;;;;;;14.02;9.77;;;;;;;11.93;75.79;100773.38;10305227;28;20038;-57
2021/10/12 02:29:33;;;;;;;16.58;11.90;;;;;;;11.96;75.78;100773.16;10300719;28;20076;-57
2021/10/12 02:34:36;;;;;;;14.15;9.90;;;;;;;11.98;75.81;100773.91;10303812;28;20078;-57
2021/10/12 02:39:37;;;;;;;13.73;9.45;;;;;;;12.01;76.09;100771.00;10295493;28;20105;-57
2021/10/12 02:44:39;;;;;;;11.60;9.65;;;;;;;11.98;76.04;100763.22;10304597;28;20046;-57
2021/10/12 02:49:40;;;;;;;13.98;10.18;;;;;;;11.99;76.86;100753.38;10297451;28;20456;-57
2021/10/12 02:54:41;;;;;;;13.23;10.07;;;;;;;12.09;77.26;100756.19;10298187;28;20096;-58
2021/10/12 02:59:43;;;;;;;11.77;10.15;;;;;;;12.12;78.11;100755.97;10292735;28;20169;-57
2021/10/12 03:04:44;;;;;;;12.38;9.95;;;;;;;12.06;78.46;100756.44;10298072;28;20396;-58
2021/10/12 03:09:46;;;;;;;11.20;9.77;;;;;;;12.07;79.30;100760.78;10300482;28;20090;-58
2021/10/12 03:14:47;;;;;;;11.68;9.82;;;;;;;12.05;79.67;100746.72;10302831;28;20046;-58
2021/10/12 03:19:48;;;;;;;10.23;9.10;;;;;;;12.06;79.90;100743.09;10298941;28;20050;-61
2021/10/12 03:24:50;;;;;;;12.18;9.88;;;;;;;12.09;80.76;100750.88;10300693;28;20108;-58
2021/10/12 03:29:51;;;;;;;12.13;8.40;;;;;;;12.07;81.09;100745.66;10305345;28;20085;-58
2021/10/12 03:34:53;;;;;;;12.07;9.25;;;;;;;12.08;80.84;100735.81;10307350;28;20465;-58
2021/10/12 03:39:54;;;;;;;11.90;8.63;;;;;;;12.11;81.11;100740.91;10312476;28;20133;-57
2021/10/12 03:44:55;;;;;;;10.43;9.23;;;;;;;12.12;82.23;100742.63;10306981;28;20046;-57
2021/10/12 03:49:57;;;;;;;11.65;8.75;;;;;;;12.12;82.07;100731.94;10309532;28;20133;-57
2021/10/12 03:54:58;;;;;;;10.32;8.30;;;;;;;12.08;81.52;100731.31;10303800;28;20677;-57
2021/10/12 03:59:59;;;;;;;11.73;8.43;;;;;;;12.09;81.43;100721.50;10307818;28;20562;-58
2021/10/12 04:05:01;;;;;;;10.20;8.75;;;;;;;12.16;82.19;100728.03;10304588;28;20104;-57
2021/10/12 04:10:04;;;;;;;10.93;8.05;;;;;;;12.19;82.02;100715.31;10298956;28;20096;-56
2021/10/12 04:15:06;;;;;;;14.40;8.77;;;;;;;12.14;81.76;100714.81;10303315;28;20088;-57
2021/10/12 04:20:08;;;;;;;11.85;9.60;;;;;;;12.00;82.72;100697.25;10308559;28;20136;-57
2021/10/12 04:25:09;;;;;;;16.25;10.70;;;;;;;11.88;82.00;100692.84;10309408;28;20093;-57
2021/10/12 04:30:11;;;;;;;11.23;9.80;;;;;;;11.74;83.47;100680.63;10303941;28;20070;-57
2021/10/12 04:35:13;;;;;;;12.48;10.40;;;;;;;11.76;82.65;100672.50;10307836;28;20090;-57
2021/10/12 04:40:14;;;;;;;11.32;10.10;;;;;;;11.62;83.45;100660.22;10305951;28;20062;-58
2021/10/12 04:45:19;;;;;;;;;;;;;;;11.53;84.31;100667.16;10303636;28;20050;-58
2021/10/12 04:50:21;;;;;;;12.98;9.90;;;;;;;11.64;84.34;100666.31;10307766;28;20669;-57
2021/10/12 04:55:22;;;;;;;13.32;10.70;;;;;;;11.57;84.15;100663.25;10311008;28;20054;-57
2021/10/12 05:00:23;;;;;;;16.30;10.90;;;;;;;11.57;85.25;100657.91;10282014;28;20193;-57
2021/10/12 05:05:25;;;;;;;12.45;10.23;;;;;;;11.71;85.82;100669.31;10277172;28;20539;-57
2021/10/12 05:10:26;;;;;;;15.10;11.57;;;;;;;11.78;84.73;100665.19;10275237;28;20137;-57
2021/10/12 05:15:29;;;;;;;14.07;10.90;;;;;;;11.80;84.28;100663.25;10276866;28;20105;-57
2021/10/12 05:20:30;;;;;;;12.77;11.05;;;;;;;11.79;85.02;100662.41;10275537;28;20054;-57
2021/10/12 05:25:32;;;;;;;13.02;11.50;;;;;;;11.81;84.28;100644.50;10276716;28;20102;-57
2021/10/12 05:30:39;;;;;;;12.85;11.02;;;;;;;11.80;84.31;100650.78;10278350;28;20070;-57
2021/10/12 05:35:41;;;;;;;13.90;12.48;;;;;;;11.74;84.36;100653.06;10276331;28;20169;-57
2021/10/12 05:40:45;;;;;;;;;;;;;;;11.82;85.06;100650.66;10280046;28;20050;-57
2021/10/12 05:45:46;;;;;;;17.60;13.48;;;;;;;11.87;84.31;100652.97;10274485;28;20198;-57
2021/10/12 05:50:48;;;;;;;21.02;13.85;;;;;;;11.91;84.59;100665.09;10275787;28;20070;-57
2021/10/12 06:00:51;;;;;;;15.38;13.13;;;;;;;11.86;84.65;100644.13;10274251;28;20597;-54
2021/10/12 06:05:53;;;;;;;19.38;14.50;;;;;;;11.93;85.70;100645.34;10277015;28;20137;-53
2021/10/12 06:10:54;;;;;;;15.70;13.02;;;;;;;11.98;84.59;100645.84;10263871;23;20059;-58
2021/10/12 06:15:57;;;;;;;15.27;13.18;;;;;;;11.94;84.60;100635.53;10233032;28;20781;-59
2021/10/12 06:20:59;;;;;;;17.55;14.40;;;;;;;12.00;84.98;100638.53;10239858;28;20101;-61
2021/10/12 06:26:00;;;;;;;14.70;13.23;;;;;;;12.08;85.09;100642.41;10234713;28;20051;-60
2021/10/12 06:31:02;;;;;;;18.67;13.90;;;;;;;12.07;84.13;100635.38;10233474;28;20622;-60
2021/10/12 06:36:04;;;;;;;19.38;12.75;;;;;;;11.83;83.17;100636.38;10237447;28;20644;-60
2021/10/12 06:41:06;;;;;;;16.67;13.07;;;;;;;11.62;85.30;100636.22;10233191;28;20133;-61
2021/10/12 06:46:07;;;;;;;13.93;11.85;;;;;;;11.56;84.86;100629.56;10235600;28;20128;-62
2021/10/12 06:51:09;;;;;;;14.68;12.93;;;;;;;11.63;84.04;100635.25;10234751;28;20046;-60
2021/10/12 06:56:20;;;;;;;16.30;12.25;;;;;;;11.40;83.99;100623.75;10238769;28;20139;-60
2021/10/12 07:01:21;;;;;;;14.65;10.98;;;;;;;11.43;85.15;100628.84;10240118;28;20245;-61
2021/10/12 07:06:23;;;;;;;13.05;11.00;;;;;;;11.58;84.85;100632.97;10242046;28;20404;-60
2021/10/12 07:11:25;;;;;;;12.98;10.35;;;;;;;11.42;85.01;100630.63;10234056;28;20167;-60
2021/10/12 07:16:26;;;;;;;11.93;9.95;;;;;;;11.59;85.30;100632.00;10239195;28;20146;-60
2021/10/12 07:21:27;;;;;;;11.93;9.75;;;;;;;11.82;84.42;100619.50;10238986;28;20074;-61
2021/10/12 07:26:29;;;;;;;14.57;10.55;;;;;;;11.94;83.17;100612.38;10238274;28;20652;-60
2021/10/12 07:31:31;;;;;;;14.10;9.52;;;;;;;11.93;82.67;100613.31;10233483;28;20058;-61
2021/10/12 07:36:33;;;;;;;14.77;9.02;;;;;;;11.99;82.96;100617.31;10237697;28;20180;-62
2021/10/12 07:41:35;;;;;;;9.60;8.60;;;;;;;11.96;82.51;100617.56;10235354;28;20153;-61
2021/10/12 07:46:37;;;;;;;10.30;8.23;;;;;;;11.92;82.37;100627.63;10239765;28;20749;-61
2021/10/12 07:51:38;;;;;;;8.40;7.55;;;;;;;11.96;82.52;100615.75;10235508;28;20157;-61
2021/10/12 07:56:40;;;;;;;8.45;7.63;;;;;;;12.15;83.51;100614.28;10242451;28;20191;-61
2021/10/12 08:01:42;;;;;;;10.13;8.13;;;;;;;12.10;81.70;100613.78;10238055;28;20624;-62
2021/10/12 08:06:44;;;;;;;10.65;8.63;;;;;;;11.97;82.26;100601.44;10237593;28;20155;-61
2021/10/12 08:11:45;;;;;;;9.30;8.13;;;;;;;12.07;82.07;100582.88;10241090;28;20571;-61
2021/10/12 08:16:47;;;;;;;11.20;8.18;;;;;;;12.17;81.29;100582.97;10244670;28;20180;-61
2021/10/12 08:21:48;;;;;;;9.65;7.53;;;;;;;12.25;81.04;100575.19;10244930;28;20401;-61
2021/10/12 08:26:51;;;;;;;9.70;8.27;;;;;;;12.15;82.56;100576.91;10240861;28;20043;-61
2021/10/12 08:31:52;;;;;;;10.43;6.88;;;;;;;12.24;82.45;100576.16;10251582;28;20051;-60
2021/10/12 08:36:54;;;;;;;8.57;6.00;;;;;;;12.16;80.17;100573.25;10236452;28;20685;-61
2021/10/12 08:42:10;;;;;;;9.32;6.25;;;;;;;12.14;81.43;100569.88;10243948;28;20083;-60
2021/10/12 08:47:13;;;;;;;10.85;6.28;;;;;;;12.14;82.43;100559.19;10245021;28;20109;-60
2021/10/12 08:52:14;;;;;;;10.40;6.55;;;;;;;11.97;82.64;100557.91;10243294;28;20057;-61
2021/10/12 08:57:37;;;;;;;8.32;6.18;;;;;;;11.97;82.33;100548.09;10245009;28;20074;-60
2021/10/12 09:08:32;;;;;;;8.73;5.95;;;;;;;12.13;82.47;100546.81;10244101;28;20078;-62
2021/10/12 09:13:48;;;;;;;8.98;5.18;;;;;;;12.16;81.63;100542.09;10239353;28;20879;-62
2021/10/12 09:18:55;;;;;;;7.45;5.65;;;;;;;12.12;81.07;100529.13;10246140;28;20053;-59
2021/10/12 09:24:14;;;;;;;7.50;4.68;;;;;;;12.19;82.18;100541.00;10241406;28;20403;-61
2021/10/12 09:29:24;;;;;;;8.13;5.72;;;;;;;12.08;82.53;100525.84;10243190;28;20058;-61
2021/10/12 09:34:28;;;;;;;9.48;5.45;;;;;;;12.00;82.04;100520.31;10243986;28;20043;-61
2021/10/12 09:39:34;;;;;;;7.38;5.65;;;;;;;12.03;82.34;100515.56;10243253;28;20125;-62
2021/10/12 09:44:37;;;;;;;8.18;5.35;;;;;;;11.90;82.08;100504.16;10235121;28;20157;-61
2021/10/12 09:49:39;;;;;;;8.95;5.75;;;;;;;11.95;82.56;100509.16;10235266;28;20145;-61
2021/10/12 09:54:48;;;;;;;8.93;5.55;;;;;;;11.94;82.59;100499.47;10242701;28;20146;-61
2021/10/12 09:59:50;;;;;;;6.82;5.38;;;;;;;12.01;82.79;100496.19;10238282;28;20147;-61
2021/10/12 10:04:53;;;;;;;9.07;5.72;;;;;;;12.22;82.08;100486.50;10237263;28;20103;-63
2021/10/12 10:09:56;;;;;;;7.80;5.57;;;;;;;13.22;77.83;100486.78;10244283;28;20055;-61
2021/10/12 10:14:57;;;;;;;9.52;6.53;;;;;;;13.68;75.50;100473.03;10240812;28;20138;-62
2021/10/12 10:20:03;;;;;;;8.73;5.50;;;;;;;13.66;75.08;100464.28;10241783;28;20138;-61
2021/10/12 10:25:27;;;;;;;9.05;6.50;;;;;;;13.18;77.33;100453.31;10242559;28;20050;-62
2021/10/12 10:30:33;;;;;;;6.35;5.72;;;;;;;12.87;78.67;100445.31;10243366;28;20074;-62
2021/10/12 10:35:45;;;;;;;7.75;5.57;;;;;;;12.95;79.47;100449.97;10238855;28;20059;-66
2021/10/12 10:40:48;;;;;;;10.43;6.70;;;;;;;12.83;79.34;100443.03;10243379;28;21160;-61
2021/10/12 10:45:50;;;;;;;8.27;5.30;;;;;;;12.94;77.78;100436.75;10236913;28;20126;-61
2021/10/12 10:50:52;;;;;;;8.52;5.85;;;;;;;12.82;77.83;100425.31;10237939;28;20054;-61
2021/10/12 10:55:59;;;;;;;5.43;3.95;;;;;;;12.76;76.45;100426.72;10237901;28;20070;-61
2021/10/12 11:01:00;;;;;;;7.10;4.50;;;;;;;12.67;77.18;100412.34;10239399;28;20049;-61
2021/10/12 11:06:13;;;;;;;9.73;5.50;;;;;;;12.60;78.76;100411.16;10239716;28;20051;-61
2021/10/12 11:11:14;;;;;;;11.32;6.28;;;;;;;12.58;80.17;100402.47;10244646;28;20051;-61
2021/10/12 11:16:17;;;;;;;9.68;5.35;;;;;;;12.60;78.60;100395.16;10240035;28;20130;-61
2021/10/12 11:21:20;;;;;;;6.90;4.15;;;;;;;12.50;77.48;100388.91;10231137;28;20496;-61
2021/10/12 11:26:24;;;;;;;7.05;3.65;;;;;;;12.44;75.90;100384.09;10238258;28;20163;-61
2021/10/12 11:31:29;;;;;;;8.52;3.00;;;;;;;12.53;76.96;100377.97;10238551;28;20067;-61
2021/10/12 11:36:32;;;;;;;8.07;3.38;;;;;;;12.62;76.68;100379.81;10234232;28;20139;-60
2021/10/12 11:41:38;;;;;;;7.97;4.20;;;;;;;12.55;76.36;100360.84;10246752;28;20046;-60
2021/10/12 11:46:47;;;;;;;6.63;3.92;;;;;;;12.60;79.41;100373.78;10247249;28;20071;-60
2021/10/12 11:51:50;;;;;;;4.97;3.30;;;;;;;12.61;78.91;100369.28;10244998;28;20054;-57
2021/10/12 11:56:52;;;;;;;4.70;3.22;;;;;;;12.61;78.21;100362.13;10247710;28;20134;-57
2021/10/12 12:01:55;;;;;;;4.82;2.67;;;;;;;12.65;78.63;100349.34;10247181;28;20575;-57
2021/10/12 12:07:08;;;;;;;6.43;2.75;;;;;;;12.65;79.23;100338.66;10241650;28;20063;-58
2021/10/12 12:12:09;;;;;;;7.60;2.65;;;;;;;12.76;79.45;100335.03;10234856;28;20109;-60
2021/10/12 12:17:13;;;;;;;3.83;2.25;;;;;;;12.78;79.55;100322.41;10249880;28;20128;-60
2021/10/12 12:22:22;;;;;;;3.33;2.00;;;;;;;12.83;78.38;100312.16;10245210;28;20049;-60
2021/10/12 12:27:26;;;;;;;3.03;1.60;;;;;;;12.99;76.20;100325.81;10244204;28;20202;-61
2021/10/12 12:32:27;;;;;;;2.58;1.80;;;;;;;12.82;77.70;100307.78;10245702;28;20247;-61
2021/10/12 12:37:29;;;;;;;3.47;1.77;;;;;;;12.90;77.03;100310.63;10248885;28;20141;-61
2021/10/12 12:42:36;;;;;;;3.05;2.15;;;;;;;12.97;77.46;100295.75;10240392;28;20146;-60
2021/10/12 12:47:49;;;;;;;4.78;1.70;;;;;;;13.08;78.00;100281.41;10239575;28;20496;-61
2021/10/12 12:52:51;;;;;;;3.08;1.98;;;;;;;13.08;77.45;100268.03;10238440;28;20067;-61
2021/10/12 12:57:55;;;;;;;4.55;2.60;;;;;;;13.14;77.71;100261.31;10241538;28;20216;-61
2021/10/12 13:02:58;;;;;;;4.45;2.28;;;;;;;13.20;77.13;100258.06;10242767;28;20137;-61
2021/10/12 13:08:01;;;;;;;4.18;2.30;;;;;;;13.10;77.31;100250.03;10241056;28;20079;-62
2021/10/12 13:13:02;;;;;;;3.88;2.75;;;;;;;13.13;77.17;100246.25;10245016;28;20038;-61
2021/10/12 13:18:04;;;;;;;4.45;2.20;;;;;;;13.17;78.24;100236.97;10250183;28;20138;-60
2021/10/12 13:23:05;;;;;;;3.47;2.10;;;;;;;13.15;77.99;100241.59;10240077;28;20243;-60
2021/10/12 13:28:07;;;;;;;6.38;2.42;;;;;;;13.07;78.58;100232.44;10242345;28;20126;-61
2021/10/12 13:33:09;;;;;;;5.35;2.70;;;;;;;13.04;79.51;100247.91;10244395;28;20182;-61
2021/10/12 13:38:11;;;;;;;1.83;1.50;;;;;;;13.08;79.86;100252.84;10246424;28;20142;-61
2021/10/12 13:43:14;;;;;;;3.70;2.58;;;;;;;12.94;79.92;100253.28;10236230;28;20062;-61
2021/10/12 13:48:15;;;;;;;4.22;2.03;;;;;;;12.77;80.41;100236.06;10239509;28;20113;-60
2021/10/12 13:53:17;;;;;;;3.00;1.80;;;;;;;12.79;80.02;100234.13;10236421;28;20070;-61
2021/10/12 13:58:18;;;;;;;3.55;1.88;;;;;;;12.82;80.27;100222.31;10239033;28;20108;-60
2021/10/12 14:03:20;;;;;;;3.78;2.30;;;;;;;12.80;80.85;100214.44;10234138;28;20205;-61
2021/10/12 14:08:21;;;;;;;3.58;2.95;;;;;;;12.65;81.53;100200.63;10236360;28;20067;-61
2021/10/12 14:13:26;;;;;;;4.20;2.30;;;;;;;12.65;81.37;100216.66;10235896;28;20157;-61
2021/10/12 14:18:28;;;;;;;4.03;3.08;;;;;;;12.61;82.05;100209.91;10237242;28;20133;-60
2021/10/12 14:23:29;;;;;;;3.53;2.75;;;;;;;12.86;81.16;100213.03;10243436;28;20153;-61
2021/10/12 14:28:31;;;;;;;3.70;2.88;;;;;;;12.91;81.33;100226.84;10239629;28;20097;-60
2021/10/12 14:33:32;;;;;;;7.15;3.60;;;;;;;12.91;80.62;100234.84;10238328;28;20058;-61
2021/10/12 14:38:35;;;;;;;4.07;3.05;;;;;;;12.81;81.88;100228.66;10236548;28;20781;-60
2021/10/12 14:43:37;;;;;;;5.30;3.60;;;;;;;12.79;82.37;100222.59;10236343;28;20065;-61
2021/10/12 14:48:38;;;;;;;5.85;3.35;;;;;;;12.83;82.41;100214.16;10240168;28;20698;-62
2021/10/12 14:53:40;;;;;;;4.15;3.58;;;;;;;12.89;82.09;100218.09;10232776;28;20059;-61
2021/10/12 14:58:41;;;;;;;5.97;3.80;;;;;;;12.76;83.00;100204.16;10234009;28;20089;-61
2021/10/12 15:03:45;;;;;;;4.45;2.97;;;;;;;12.88;82.88;100200.38;10240700;28;20061;-60
2021/10/12 15:09:01;;;;;;;3.50;3.20;;;;;;;12.69;83.22;100202.03;10236904;28;20127;-60
2021/10/12 15:14:03;;;;;;;4.13;3.22;;;;;;;12.79;85.22;100206.56;10234582;28;20401;-61
2021/10/12 15:19:04;;;;;;;6.05;4.00;;;;;;;12.82;84.10;100198.25;10234711;28;20082;-60
2021/10/12 15:24:06;;;;;;;5.95;4.15;;;;;;;12.91;84.80;100197.44;10237687;28;20070;-61
2021/10/12 15:29:07;;;;;;;5.47;4.30;;;;;;;12.95;83.97;100190.81;10240776;28;20074;-60
2021/10/12 15:34:08;;;;;;;4.47;4.05;;;;;;;12.95;83.05;100188.16;10235744;28;20122;-61
2021/10/12 15:39:19;;;;;;;4.18;3.13;;;;;;;12.85;83.72;100189.97;10242991;28;20141;-61
2021/10/12 15:44:22;;;;;;;5.43;3.08;;;;;;;12.80;84.27;100193.06;10236295;28;20158;-61
2021/10/12 15:49:23;;;;;;;4.55;3.72;;;;;;;12.84;83.65;100193.66;10236633;28;20138;-62
2021/10/12 15:54:25;;;;;;;5.28;3.40;;;;;;;12.75;83.64;100207.84;10239915;28;20078;-60
2021/10/12 15:59:27;;;;;;;6.13;2.88;;;;;;;12.79;86.28;100225.25;10237774;28;20153;-61
2021/10/12 16:04:30;;;;;;;5.03;2.92;;;;;;;12.83;86.53;100240.03;10223618;28;20066;-60
2021/10/12 16:09:31;;;;;;;7.15;3.55;;;;;;;12.66;88.54;100244.22;10235022;28;20126;-60
2021/10/12 16:20:05;;;;;;;2.25;1.13;;;;;;;12.38;83.96;100236.84;10227554;28;20176;-60
2021/10/12 16:25:06;;;;;;;2.83;1.95;;;;;;;12.43;84.23;100235.56;10230977;28;20121;-60
2021/10/12 16:30:08;;;;;;;1.75;1.63;;;;;;;12.55;85.87;100231.84;10234826;28;20050;-61
2021/10/12 16:35:11;;;;;;;2.70;0.80;;;;;;;12.54;83.57;100249.66;10236196;28;20090;-62
2021/10/12 16:40:16;;;;;;;2.10;0.80;;;;;;;12.32;82.02;100264.06;10236790;28;20496;-61
2021/10/12 16:45:18;;;;;;;3.42;0.85;;;;;;;12.10;83.96;100264.25;10242288;28;20089;-60
2021/10/12 16:50:19;;;;;;;2.72;0.77;;;;;;;12.29;84.19;100267.00;10240789;28;20050;-60
2021/10/12 16:55:21;;;;;;;1.15;0.57;;;;;;;12.44;83.21;100267.47;10239592;28;20054;-60
2021/10/12 17:00:22;;;;;;;1.45;0.70;;;;;;;12.41;82.29;100266.91;10233949;28;20449;-60
2021/10/12 17:05:24;;;;;;;1.42;0.85;;;;;;;12.40;82.89;100258.06;10240545;28;20091;-60
2021/10/12 17:10:25;;;;;;;1.60;1.10;;;;;;;12.41;82.63;100264.25;10239914;28;20066;-61
2021/10/12 17:15:27;;;;;;;1.92;0.98;;;;;;;12.12;79.62;100259.63;10237233;28;20548;-61
2021/10/12 17:20:29;;;;;;;1.25;0.98;;;;;;;12.14;81.30;100260.34;10240028;28;20055;-61
2021/10/12 17:25:31;;;;;;;1.83;1.10;;;;;;;12.07;82.19;100265.38;10233043;28;20129;-61
2021/10/12 17:30:33;;;;;;;1.90;1.08;;;;;;;12.23;83.04;100278.22;10242422;28;20469;-63
2021/10/12 17:35:34;;;;;;;2.80;2.08;;;;;;;12.15;80.78;100286.06;10238355;28;20134;-60
2021/10/12 17:40:37;;;;;;;3.90;2.65;;;;;;;11.94;82.20;100272.75;10239606;28;20166;-58
2021/10/12 17:45:39;;;;;;;7.28;2.67;;;;;;;11.97;81.19;100294.66;10238826;28;20133;-60
2021/10/12 17:50:46;;;;;;;2.63;1.67;;;;;;;11.80;79.20;100298.75;10234215;28;20125;-60
2021/10/12 17:55:47;;;;;;;2.47;1.45;;;;;;;11.77;80.42;100316.78;10256002;28;20126;-59
2021/10/12 18:00:49;;;;;;;1.55;1.23;;;;;;;11.68;80.81;100311.28;10239152;28;21786;-55
2021/10/12 18:06:09;;;;;;;3.25;1.35;;;;;;;11.59;80.43;100336.06;10239684;28;20133;-55
2021/10/12 18:11:23;;;;;;;4.10;2.08;;;;;;;11.45;81.25;100336.34;10238463;28;20054;-55
2021/10/12 18:16:26;;;;;;;2.33;2.00;;;;;;;11.52;81.74;100358.88;10238842;28;20074;-60
2021/10/12 18:21:28;;;;;;;2.13;1.75;;;;;;;11.50;81.18;100360.81;10238920;28;20132;-60
2021/10/12 18:26:35;;;;;;;3.17;2.45;;;;;;;11.43;81.11;100359.63;10236619;28;20050;-60
2021/10/12 18:31:38;;;;;;;2.67;1.50;;;;;;;11.32;80.42;100369.34;10238933;28;20109;-61
2021/10/12 18:36:40;;;;;;;3.10;1.60;;;;;;;11.29;80.64;100382.09;10230839;28;20146;-60
2021/10/12 18:41:44;;;;;;;2.22;1.70;;;;;;;11.25;80.13;100381.47;10239211;28;20050;-60
2021/10/12 18:46:46;;;;;;;2.33;1.63;;;;;;;11.04;81.21;100377.88;10236104;28;20139;-60
2021/10/12 18:51:49;;;;;;;2.25;2.05;;;;;;;10.91;80.68;100389.53;10235583;28;20043;-60
2021/10/12 18:56:50;;;;;;;3.08;1.90;;;;;;;10.76;81.59;100388.06;10240554;28;20508;-60
2021/10/12 19:01:52;;;;;;;3.10;2.28;;;;;;;10.90;81.08;100401.16;10244577;28;20142;-60
2021/10/12 19:06:53;;;;;;;1.67;1.45;;;;;;;10.96;80.82;100407.81;10242469;28;20105;-60
2021/10/12 19:11:56;;;;;;;2.22;2.03;;;;;;;11.06;81.24;100406.06;10237770;28;20132;-60
2021/10/12 19:16:58;;;;;;;2.22;1.60;;;;;;;11.05;81.01;100408.88;10238745;28;20110;-60
2021/10/12 19:21:59;;;;;;;3.05;2.10;;;;;;;11.00;80.31;100413.72;10237663;28;20145;-61
2021/10/12 19:27:01;;;;;;;2.35;1.80;;;;;;;10.96;80.52;100429.97;10233260;28;20182;-60
2021/10/12 19:32:03;;;;;;;2.33;1.52;;;;;;;10.86;80.34;100436.13;10238404;28;20141;-60
2021/10/12 19:37:05;;;;;;;2.50;1.73;;;;;;;10.80;80.72;100432.13;10235201;28;20484;-61
2021/10/12 19:42:07;;;;;;;3.05;1.73;;;;;;;10.72;80.75;100438.06;10238113;28;20621;-60
2021/10/12 19:47:08;;;;;;;2.88;1.70;;;;;;;10.64;80.44;100439.63;10231706;28;20113;-60
2021/10/12 19:52:10;;;;;;;2.85;1.70;;;;;;;10.41;82.03;100450.25;10234028;28;20141;-60
2021/10/12 19:57:11;;;;;;;2.08;1.65;;;;;;;10.46;81.90;100448.06;10232490;28;20174;-60
2021/10/12 20:07:33;;;;;;;2.83;1.98;;;;;;;10.31;82.70;100455.38;10246463;28;20459;-60
2021/10/12 20:12:34;;;;;;;3.03;1.60;;;;;;;10.36;81.34;100458.56;10255562;28;20449;-61
2021/10/12 20:17:36;;;;;;;2.80;2.15;;;;;;;10.35;81.90;100461.34;10265397;28;20047;-60
2021/10/12 20:22:39;;;;;;;2.85;2.22;;;;;;;10.38;80.39;100477.91;10260890;28;20469;-60
2021/10/12 20:27:42;;;;;;;3.22;1.85;;;;;;;10.42;80.91;100494.53;10259920;28;20070;-60
2021/10/12 20:32:44;;;;;;;3.28;2.30;;;;;;;10.31;81.17;100486.47;10266094;28;20123;-60
2021/10/12 20:37:45;;;;;;;3.25;1.75;;;;;;;10.12;81.35;100498.50;10265538;28;20074;-60
2021/10/12 20:42:47;;;;;;;2.55;2.28;;;;;;;10.08;82.56;100505.00;10273547;28;20134;-60
2021/10/12 20:47:50;;;;;;;3.60;2.38;;;;;;;10.11;81.97;100503.94;10274872;28;20186;-60
2021/10/12 20:52:54;;;;;;;3.35;2.60;;;;;;;10.11;80.47;100510.09;10274261;28;20042;-60
2021/10/12 20:57:55;;;;;;;3.17;2.80;;;;;;;10.11;80.67;100518.06;10273390;28;20137;-62
2021/10/12 21:02:59;;;;;;;2.55;2.28;;;;;;;10.19;81.09;100522.81;10270573;28;20066;-60
2021/10/12 21:08:00;;;;;;;4.50;2.47;;;;;;;10.14;80.79;100522.31;10266753;28;20043;-61
2021/10/12 21:13:02;;;;;;;4.35;2.47;;;;;;;10.14;80.78;100531.13;10274445;28;20137;-60
2021/10/12 21:18:03;;;;;;;3.97;2.22;;;;;;;10.19;80.45;100536.13;10272773;28;20189;-60
2021/10/12 21:23:07;;;;;;;3.85;2.35;;;;;;;10.12;80.43;100535.72;10274264;28;20078;-60
2021/10/12 21:28:09;;;;;;;4.43;2.80;;;;;;;10.09;80.47;100551.91;10268543;28;20070;-60
2021/10/12 21:33:11;;;;;;;3.78;2.95;;;;;;;10.02;80.62;100556.00;10269611;28;20054;-60
2021/10/12 21:38:12;;;;;;;4.40;2.60;;;;;;;10.02;80.26;100556.00;10271777;28;20117;-60
2021/10/12 21:43:15;;;;;;;3.85;2.97;;;;;;;10.01;80.54;100554.28;10264924;28;20078;-60
2021/10/12 21:48:16;;;;;;;4.82;3.17;;;;;;;9.99;81.25;100556.22;10267994;28;20192;-61
2021/10/12 21:53:19;;;;;;;4.00;3.22;;;;;;;9.89;79.65;100540.94;10268106;28;20055;-60
2021/10/12 21:58:22;;;;;;;4.38;2.33;;;;;;;9.83;79.97;100552.03;10264223;28;20113;-61
2021/10/12 22:03:23;;;;;;;5.30;2.42;;;;;;;9.85;80.26;100560.72;10269990;28;20086;-61
2021/10/12 22:08:25;;;;;;;3.35;2.38;;;;;;;9.82;80.08;100555.63;10262776;28;20067;-62
2021/10/12 22:13:26;;;;;;;2.28;1.70;;;;;;;9.82;79.22;100558.28;10265948;28;20164;-62
2021/10/12 22:18:28;;;;;;;3.95;2.00;;;;;;;9.79;79.02;100571.81;10260893;28;20083;-60
2021/10/12 22:23:29;;;;;;;3.42;2.00;;;;;;;9.75;78.72;100556.19;10263185;28;20133;-61
2021/10/12 22:28:39;;;;;;;4.07;2.42;;;;;;;9.75;79.56;100566.81;10266322;28;20451;-60
2021/10/12 22:33:40;;;;;;;2.60;1.80;;;;;;;9.68;78.74;100569.06;10264979;28;20079;-60
2021/10/12 22:38:42;;;;;;;2.70;1.63;;;;;;;9.65;78.92;100574.59;10259646;28;20051;-60
2021/10/12 22:43:46;;;;;;;3.50;1.70;;;;;;;9.67;78.71;100578.00;10254566;28;20079;-61
2021/10/12 22:48:47;;;;;;;5.63;2.38;;;;;;;9.61;78.52;100573.09;10271244;28;20097;-60
2021/10/12 22:53:49;;;;;;;2.97;1.65;;;;;;;9.60;78.43;100576.75;10264504;28;20058;-60
2021/10/12 22:58:50;;;;;;;3.25;2.03;;;;;;;9.53;78.52;100571.00;10265253;28;20496;-62
2021/10/12 23:03:52;;;;;;;3.15;2.13;;;;;;;9.56;78.60;100576.09;10263628;28;20067;-60
2021/10/12 23:08:53;;;;;;;2.40;1.60;;;;;;;9.55;78.19;100577.91;10264648;28;20054;-61
2021/10/12 23:13:55;;;;;;;3.45;2.03;;;;;;;9.47;77.90;100572.31;10261573;28;20047;-60
2021/10/12 23:18:56;;;;;;;3.63;1.65;;;;;;;9.44;77.50;100588.44;10257475;28;20141;-61
2021/10/12 23:23:58;;;;;;;2.33;1.50;;;;;;;9.45;77.94;100592.81;10258706;28;20658;-61
2021/10/12 23:28:59;;;;;;;3.50;1.45;;;;;;;9.44;76.62;100601.72;10264812;28;20070;-60